Stations météo

réclame
Mon MeteoGroup
Chamonix, France (7469): Température de l'air & dewpoint: 11.12.2018 06:00:00 - 17.12.2018 06:00:00 (CET)Chamonix, France (7469): Vitesse du vent & gusts: 11.12.2018 06:00:00 - 17.12.2018 06:00:00 (CET)Chamonix, France (7469): Direction du vent: 11.12.2018 06:00:00 - 17.12.2018 06:00:00 (CET)Chamonix, France (7469): Quantités de précipitations: 11.12.2018 06:00:00 - 17.12.2018 06:00:00 (CET)
Date & Time tt [°C] td [°C] ff [km/h] ff [knt] fx [km/h] fx [knt] dd rr [mm]
17.12.2018 06:00:00 - - - - - - - -
17.12.2018 05:00:00 0,0 -0,1 0 0 2 1 N 1,0
17.12.2018 04:00:00 0,0 -0,1 0 0 0 0 N 0,9
17.12.2018 03:00:00 0,0 -0,1 0 0 0 0 N 2,0
17.12.2018 02:00:00 0,0 -0,1 0 0 0 0 N 0,8
17.12.2018 01:00:00 0,0 -0,1 0 0 2 1 N -
17.12.2018 00:00:00 0,1 -0,2 0 0 4 2 N 1,0
16.12.2018 23:00:00 0,4 0,1 0 0 4 2 N 1,0
16.12.2018 22:00:00 0,5 0,2 0 0 4 2 N 0,8
16.12.2018 21:00:00 0,5 0,2 0 0 4 2 N 0,6
16.12.2018 20:00:00 0,5 0,2 0 0 4 2 N 0,0
16.12.2018 19:00:00 0,8 0,5 2 1 5 3 NE -
16.12.2018 18:00:00 0,8 0,5 4 2 8 4 NW 0,0
16.12.2018 17:00:00 0,8 0,4 0 0 4 2 N 0,0
16.12.2018 16:00:00 1,2 0,8 0 0 4 2 N 0,0
16.12.2018 15:00:00 1,5 0,9 0 0 4 2 N 0,0
16.12.2018 14:00:00 1,9 1,5 0 0 5 3 N 0,0
16.12.2018 13:00:00 1,7 1,3 4 2 9 5 N -
16.12.2018 12:00:00 1,3 1,0 2 1 8 4 N 0,0
16.12.2018 11:00:00 1,2 0,9 0 0 8 4 N 0,0
16.12.2018 10:00:00 0,5 0,2 4 2 9 5 N 0,2
16.12.2018 09:00:00 0,2 -0,1 0 0 8 4 N 0,6
16.12.2018 08:00:00 0,3 0,0 4 2 16 9 E 0,0
16.12.2018 07:00:00 0,1 -0,2 4 2 9 5 ENE -
16.12.2018 06:00:00 0,2 -0,1 2 1 9 5 NW 1,0
16.12.2018 05:00:00 -0,1 -0,5 4 2 9 5 ENE 0,6
16.12.2018 04:00:00 -0,5 -0,9 4 2 11 6 ENE 2,0
16.12.2018 03:00:00 -1,3 -1,7 5 3 11 6 ESE 2,0
16.12.2018 02:00:00 -2,4 -3,0 0 0 4 2 N 2,0
16.12.2018 01:00:00 -2,6 -3,3 0 0 0 0 N -
16.12.2018 00:00:00 -2,6 -3,6 0 0 4 2 N 2,0
15.12.2018 23:00:00 -2,5 -4,5 0 0 4 2 N 0,0
15.12.2018 22:00:00 -2,6 -4,9 0 0 4 2 N 0,0
15.12.2018 21:00:00 -2,9 -5,1 4 2 5 3 N 0,0
15.12.2018 20:00:00 -3,0 -5,5 0 0 5 3 N 0,0
15.12.2018 19:00:00 -3,2 -5,8 0 0 4 2 N -
15.12.2018 18:00:00 -3,3 -6,4 0 0 4 2 N 0,0
15.12.2018 17:00:00 -3,1 -6,4 0 0 4 2 N 0,0
15.12.2018 16:00:00 -2,6 -7,5 0 0 4 2 N 0,0
15.12.2018 15:00:00 -3,5 -7,1 0 0 5 3 N 0,0
15.12.2018 14:00:00 -4,0 -8,1 4 2 8 4 N 0,0
15.12.2018 13:00:00 -5,3 -7,4 2 1 5 3 W -
15.12.2018 12:00:00 -8,9 -10,0 0 0 5 3 N 0,0
15.12.2018 11:00:00 -9,6 -10,7 0 0 4 2 N 0,0
15.12.2018 10:00:00 -10,1 -11,3 0 0 4 2 N 0,0
15.12.2018 09:00:00 -10,2 -11,4 0 0 4 2 N 0,0
15.12.2018 08:00:00 -9,8 -11,0 2 1 8 4 N 0,0
15.12.2018 07:00:00 -9,8 -11,0 2 1 5 3 NE -
15.12.2018 06:00:00 -9,2 -10,3 0 0 4 2 N 0,0
15.12.2018 05:00:00 -8,8 -9,9 0 0 4 2 N 0,0
15.12.2018 04:00:00 -8,1 -9,2 0 0 5 3 N 0,0
15.12.2018 03:00:00 -7,8 -8,7 0 0 4 2 N 0,0
15.12.2018 02:00:00 -7,1 -8,0 0 0 4 2 N 0,0
15.12.2018 01:00:00 -6,0 -7,4 0 0 4 2 N -
15.12.2018 00:00:00 -4,2 -5,9 4 2 5 3 NE 0,0
14.12.2018 23:00:00 -3,4 -5,0 0 0 4 2 N 0,0
14.12.2018 22:00:00 -3,2 -4,8 0 0 4 2 N 0,0
14.12.2018 21:00:00 -3,3 -4,9 2 1 4 2 NNE 0,0
14.12.2018 20:00:00 -3,5 -4,8 0 0 4 2 N 0,0
14.12.2018 19:00:00 -4,2 -5,3 4 2 11 6 SSW -
14.12.2018 18:00:00 -3,8 -6,0 0 0 8 4 N 0,0
14.12.2018 17:00:00 -2,6 -5,9 0 0 11 6 N 0,0
14.12.2018 16:00:00 -0,8 -5,0 4 2 11 6 SSW 0,0
14.12.2018 15:00:00 0,1 -5,7 2 1 9 5 WSW 0,0
14.12.2018 14:00:00 2,0 -6,6 4 2 8 4 SSW 0,0
14.12.2018 13:00:00 2,2 -6,7 4 2 9 5 SE -
14.12.2018 12:00:00 -1,0 -7,0 0 0 4 2 N 0,0
14.12.2018 11:00:00 -2,3 -5,8 0 0 4 2 N 0,0
14.12.2018 10:00:00 -3,9 -6,2 0 0 0 0 N 0,0
14.12.2018 09:00:00 -5,4 -6,9 0 0 2 1 N 0,0
14.12.2018 08:00:00 -5,8 -7,5 0 0 4 2 N 0,0
14.12.2018 07:00:00 -5,6 -7,9 0 0 5 3 N -
14.12.2018 06:00:00 -4,6 -7,7 0 0 8 4 N 0,0
14.12.2018 05:00:00 -3,8 -7,9 0 0 8 4 N 0,0
14.12.2018 04:00:00 -2,4 -8,1 2 1 13 7 ENE 0,0
14.12.2018 03:00:00 -2,1 -7,4 0 0 11 6 N 0,0
14.12.2018 02:00:00 -2,1 -9,0 2 1 13 7 NE 0,0
14.12.2018 01:00:00 -1,9 -9,3 5 3 18 10 E -
14.12.2018 00:00:00 -1,4 -9,5 5 3 26 14 ENE 0,0
13.12.2018 23:00:00 -1,2 -9,8 8 4 22 12 ENE 0,0
13.12.2018 22:00:00 -1,0 -10,1 5 3 24 13 NE 0,0
13.12.2018 21:00:00 -0,9 -9,8 5 3 28 15 NNE 0,0
13.12.2018 20:00:00 -1,0 -9,4 5 3 31 17 ENE 0,0
13.12.2018 19:00:00 -0,9 -8,8 5 3 31 17 NE -
13.12.2018 18:00:00 -1,1 -8,8 9 5 35 19 ENE 0,0
13.12.2018 17:00:00 -0,6 -9,8 8 4 29 16 ENE 0,0
13.12.2018 16:00:00 -0,1 -9,6 5 3 31 17 ENE 0,0
13.12.2018 15:00:00 0,8 -10,1 9 5 31 17 NE 0,0
13.12.2018 14:00:00 1,7 -9,6 8 4 31 17 ENE 0,0
13.12.2018 13:00:00 0,6 -9,2 9 5 39 21 E -
13.12.2018 12:00:00 -2,0 -10,6 8 4 28 15 E 0,0
13.12.2018 11:00:00 -3,5 -9,5 5 3 21 11 ENE 0,0
13.12.2018 10:00:00 -5,3 -7,1 4 2 15 8 ENE 0,0
13.12.2018 09:00:00 -6,8 -7,6 0 0 4 2 N 0,0
13.12.2018 08:00:00 -7,9 -8,8 2 1 5 3 SSE 0,0
13.12.2018 07:00:00 -9,6 -10,7 0 0 5 3 N -
13.12.2018 06:00:00 -9,7 -10,8 0 0 8 4 N 0,0
13.12.2018 05:00:00 -10,2 -11,4 0 0 4 2 N 0,0
13.12.2018 04:00:00 -10,4 -11,6 0 0 4 2 N 0,0
13.12.2018 03:00:00 -10,3 -11,5 0 0 4 2 N 0,0
13.12.2018 02:00:00 -10,2 -11,4 0 0 2 1 N 0,0
13.12.2018 01:00:00 -9,9 -11,1 0 0 2 1 N -
13.12.2018 00:00:00 -9,8 -11,0 0 0 2 1 N 0,0
12.12.2018 23:00:00 -9,3 -10,4 0 0 4 2 N 0,0
12.12.2018 22:00:00 -8,9 -10,0 0 0 4 2 N 0,0
12.12.2018 21:00:00 -8,3 -9,4 0 0 2 1 N 0,0
12.12.2018 20:00:00 -7,6 -8,7 0 0 4 2 N 0,0
12.12.2018 19:00:00 -7,0 -8,1 0 0 4 2 N -
12.12.2018 18:00:00 -6,0 -7,4 2 1 4 2 N 0,0
12.12.2018 17:00:00 -4,6 -7,5 0 0 4 2 N 0,0
12.12.2018 16:00:00 -2,6 -9,7 2 1 8 4 S 0,0
12.12.2018 15:00:00 -2,2 -8,5 4 2 8 4 SSW 0,0
12.12.2018 14:00:00 -1,3 -5,9 4 2 8 4 S 0,0
12.12.2018 13:00:00 -3,0 -3,8 0 0 4 2 N -
12.12.2018 12:00:00 -7,5 -8,4 0 0 4 2 N 0,0
12.12.2018 11:00:00 -7,8 -8,7 0 0 2 1 N 0,0
12.12.2018 10:00:00 -8,2 -9,1 0 0 4 2 N 0,0
12.12.2018 09:00:00 -8,6 -9,5 0 0 5 3 N 0,0
12.12.2018 08:00:00 -8,7 -9,6 2 1 4 2 ENE 0,0
12.12.2018 07:00:00 -8,6 -9,7 0 0 2 1 N -
12.12.2018 06:00:00 -8,4 -9,5 0 0 2 1 N 0,0
12.12.2018 05:00:00 -8,0 -8,9 0 0 4 2 N 0,0
12.12.2018 04:00:00 -8,0 -8,9 0 0 4 2 N 0,0
12.12.2018 03:00:00 -7,5 -8,4 0 0 4 2 N 0,0
12.12.2018 02:00:00 -7,2 -8,1 0 0 8 4 N 0,0
12.12.2018 01:00:00 -6,7 -7,6 0 0 8 4 N -
12.12.2018 00:00:00 -6,2 -7,1 0 0 9 5 N 0,0
11.12.2018 23:00:00 -5,7 -6,7 2 1 8 4 N 0,0
11.12.2018 22:00:00 -5,2 -6,2 2 1 8 4 NNE 0,0
11.12.2018 21:00:00 -4,5 -5,5 0 0 4 2 N 0,0
11.12.2018 20:00:00 -3,7 -4,7 2 1 8 4 NE 0,0
11.12.2018 19:00:00 -3,0 -3,7 0 0 4 2 N -
11.12.2018 18:00:00 -2,0 -3,0 0 0 4 2 N 0,0
11.12.2018 17:00:00 -0,9 -2,3 0 0 4 2 N 0,0
11.12.2018 16:00:00 0,6 -3,5 0 0 11 6 N 0,0
11.12.2018 15:00:00 1,1 -2,0 2 1 8 4 ESE 0,0
11.12.2018 14:00:00 1,2 -3,7 2 1 8 4 SSW 0,0
11.12.2018 13:00:00 1,0 -1,2 4 2 5 3 ESE -
11.12.2018 12:00:00 -2,7 -3,4 0 0 4 2 N 0,0
11.12.2018 11:00:00 -2,8 -3,6 0 0 4 2 N 0,0
11.12.2018 10:00:00 -2,6 -3,6 0 0 8 4 N 0,0
11.12.2018 09:00:00 -1,9 -3,2 4 2 11 6 NE 0,0
11.12.2018 08:00:00 -1,2 -1,9 2 1 9 5 NNE 0,0
11.12.2018 07:00:00 -0,6 -1,0 0 0 4 2 N -
11.12.2018 06:00:00 -0,7 -1,1 0 0 4 2 N 0,0

tt = Température de l'air
td = dewpoint
ff = Vitesse du vent
fx = gusts
dd = Direction du vent
rr = Quantités de précipitations

stations d'obs. à proximité